createdAt,value
2022-07-30T00:02:12.158Z,97949.63
2022-07-30T00:04:39.930Z,97953.94
2022-07-30T00:07:08.000Z,97939.03
2022-07-30T00:09:36.234Z,97935.09
2022-07-30T00:12:04.719Z,97933.53
2022-07-30T00:14:34.770Z,97925.28
2022-07-30T00:17:05.199Z,97924.13
2022-07-30T00:19:34.532Z,97924.91
2022-07-30T00:22:03.676Z,97925.31
2022-07-30T00:24:31.456Z,97921.75
2022-07-30T00:26:59.819Z,97917.06
2022-07-30T00:29:27.922Z,97925.31
2022-07-30T00:31:55.698Z,97923.75
2022-07-30T00:34:25.119Z,97929.25
2022-07-30T00:36:52.917Z,97924.13
2022-07-30T00:39:20.706Z,97914.69
2022-07-30T00:41:56.849Z,97910.75
2022-07-30T00:44:24.648Z,97908.41
2022-07-30T00:46:52.773Z,97909.19
2022-07-30T00:49:20.977Z,97909.19
2022-07-30T00:51:50.638Z,97905.66
2022-07-30T00:54:19.331Z,97900.56
2022-07-30T00:56:48.031Z,97899.75
2022-07-30T00:59:15.992Z,97888.75
2022-07-30T01:01:44.287Z,97901.34
2022-07-30T01:04:12.447Z,97897.41
2022-07-30T01:06:40.652Z,97891.91
2022-07-30T01:09:10.162Z,97885.63
2022-07-30T01:11:40.524Z,97891.91
2022-07-30T01:14:09.974Z,97886.41
2022-07-30T01:16:41.642Z,97886.03
2022-07-30T01:19:33.650Z,97880.13
2022-07-30T01:22:04.621Z,97886.41
2022-07-30T01:24:39.082Z,97873.81
2022-07-30T01:27:09.668Z,97876.19
2022-07-30T01:29:40.259Z,97875.81
2022-07-30T01:32:09.877Z,97872.28
2022-07-30T01:34:40.250Z,97873.06
2022-07-30T01:37:10.470Z,97872.25
2022-07-30T01:39:40.285Z,97871.47
2022-07-30T01:42:11.042Z,97860.88
2022-07-30T01:44:41.742Z,97857.31
2022-07-30T01:47:10.490Z,97858.88
2022-07-30T01:49:41.585Z,97856.13
2022-07-30T01:52:11.218Z,97845.91
2022-07-30T01:54:41.465Z,97841.59
2022-07-30T01:57:11.290Z,97841.59
2022-07-30T01:59:41.338Z,97839.22
2022-07-30T02:02:09.163Z,97828.22
2022-07-30T02:04:37.237Z,97827.81
2022-07-30T02:07:10.032Z,97829.00
2022-07-30T02:09:47.345Z,97830.56
2022-07-30T02:12:32.162Z,97827.41
2022-07-30T02:15:14.919Z,97826.25
2022-07-30T02:17:50.231Z,97814.03
2022-07-30T02:20:19.339Z,97812.88
2022-07-30T02:22:58.021Z,97827.44
2022-07-30T02:25:28.069Z,97833.69
2022-07-30T02:28:03.312Z,97827.81
2022-07-30T02:30:33.676Z,97828.59
2022-07-30T02:33:05.874Z,97812.47
2022-07-30T02:35:34.789Z,97814.44
2022-07-30T02:38:04.196Z,97820.34
2022-07-30T02:40:32.305Z,97816.41
2022-07-30T02:43:02.223Z,97821.16
2022-07-30T02:45:31.790Z,97823.91
2022-07-30T02:48:03.074Z,97821.94
2022-07-30T02:50:32.773Z,97820.34
2022-07-30T02:53:02.083Z,97815.66
2022-07-30T02:55:33.456Z,97829.41
2022-07-30T02:58:04.960Z,97818.41
2022-07-30T03:00:34.069Z,97815.63
2022-07-30T03:03:05.779Z,97816.41
2022-07-30T03:05:35.057Z,97814.84
2022-07-30T03:08:05.360Z,97814.03
2022-07-30T03:10:34.815Z,97813.25
2022-07-30T03:13:06.898Z,97815.63
2022-07-30T03:15:39.367Z,97813.22
2022-07-30T03:18:10.309Z,97810.03
2022-07-30T03:20:40.413Z,97813.97
2022-07-30T03:23:09.974Z,97819.84
2022-07-30T03:25:38.442Z,97825.78
2022-07-30T03:28:08.890Z,97832.03
2022-07-30T03:30:37.513Z,97837.91
2022-07-30T03:33:06.855Z,97841.47
2022-07-30T03:35:35.809Z,97840.31
2022-07-30T03:38:05.992Z,97845.44
2022-07-30T03:40:35.232Z,97845.84
2022-07-30T03:43:03.683Z,97852.50
2022-07-30T03:45:33.590Z,97847.81
2022-07-30T03:48:01.362Z,97845.47
2022-07-30T03:50:31.909Z,97847.03
2022-07-30T03:52:59.913Z,97839.97
2022-07-30T03:55:28.114Z,97840.78
2022-07-30T03:57:56.206Z,97841.19
2022-07-30T04:00:24.510Z,97846.28
2022-07-30T04:02:54.372Z,97845.53
2022-07-30T04:05:23.132Z,97845.53
2022-07-30T04:07:51.040Z,97845.13
2022-07-30T04:10:18.841Z,97836.88
2022-07-30T04:12:46.869Z,97851.81
2022-07-30T04:16:36.999Z,97866.75
2022-07-30T04:18:07.037Z,97857.75
2022-07-30T04:20:40.721Z,97851.84
2022-07-30T04:23:09.849Z,97846.34
2022-07-30T04:25:38.309Z,97850.28
2022-07-30T04:28:07.268Z,97847.53
2022-07-30T04:30:35.710Z,97845.97
2022-07-30T04:33:05.752Z,97845.97
2022-07-30T04:35:51.347Z,97827.47
2022-07-30T04:38:21.053Z,97823.50
2022-07-30T04:40:49.497Z,97832.97
2022-07-30T04:43:17.784Z,97838.47
2022-07-30T04:45:46.049Z,97847.09
2022-07-30T04:48:15.158Z,97851.84
2022-07-30T04:50:46.593Z,97850.28
2022-07-30T04:53:16.698Z,97848.69
2022-07-30T04:55:47.883Z,97844.00
2022-07-30T04:58:19.764Z,97858.16
2022-07-30T05:00:48.361Z,97860.50
2022-07-30T05:03:18.663Z,97869.94
2022-07-30T05:05:48.135Z,97860.91
2022-07-30T05:08:16.366Z,97856.59
2022-07-30T05:10:45.659Z,97863.69
2022-07-30T05:13:14.483Z,97864.47
2022-07-30T05:15:44.652Z,97858.19
2022-07-30T05:18:12.894Z,97850.31
2022-07-30T05:20:42.225Z,97850.28
2022-07-30T05:23:10.006Z,97860.53
2022-07-30T05:25:38.131Z,97861.31
2022-07-30T05:28:06.252Z,97856.59
2022-07-30T05:30:34.017Z,97863.69
2022-07-30T05:33:03.616Z,97860.13
2022-07-30T05:35:36.699Z,97864.84
2022-07-30T05:38:06.261Z,97868.00
2022-07-30T05:40:34.126Z,97870.78
2022-07-30T05:43:02.059Z,97860.94
2022-07-30T05:45:30.391Z,97866.03
2022-07-30T05:47:58.161Z,97870.78
2022-07-30T05:50:26.401Z,97871.53
2022-07-30T05:52:55.970Z,97863.69
2022-07-30T05:55:25.114Z,97873.53
2022-07-30T05:57:53.058Z,97868.00
2022-07-30T06:00:21.030Z,97870.00
2022-07-30T06:02:48.837Z,97862.91
2022-07-30T06:05:16.739Z,97861.75
2022-07-30T06:07:44.941Z,97862.13
2022-07-30T06:10:12.702Z,97857.41
2022-07-30T06:12:42.438Z,97860.94
2022-07-30T06:15:11.594Z,97854.25
2022-07-30T06:17:44.037Z,97856.59
2022-07-30T06:20:21.465Z,97858.19
2022-07-30T06:22:49.390Z,97864.09
2022-07-30T06:25:18.739Z,97862.09
2022-07-30T06:27:48.870Z,97863.28
2022-07-30T06:30:16.700Z,97857.78
2022-07-30T06:32:45.698Z,97856.59
2022-07-30T06:35:16.916Z,97858.56
2022-07-30T06:38:06.726Z,97857.78
2022-07-30T06:40:33.417Z,97847.16
2022-07-30T06:43:04.104Z,97849.91
2022-07-30T06:45:31.957Z,97847.53
2022-07-30T06:48:00.970Z,97835.31
2022-07-30T06:50:29.043Z,97836.88
2022-07-30T06:52:56.773Z,97848.72
2022-07-30T06:55:25.561Z,97844.78
2022-07-30T06:57:53.386Z,97853.81
2022-07-30T07:00:22.457Z,97849.47
2022-07-30T07:02:50.570Z,97850.25
2022-07-30T07:05:18.817Z,97839.28
2022-07-30T07:07:58.283Z,97843.97
2022-07-30T07:10:27.336Z,97840.78
2022-07-30T07:12:55.685Z,97843.94
2022-07-30T07:15:36.281Z,97835.66
2022-07-30T07:18:06.846Z,97847.44
2022-07-30T07:20:35.776Z,97847.00
2022-07-30T07:23:09.369Z,97845.41
2022-07-30T07:25:40.731Z,97832.00
2022-07-30T07:28:12.237Z,97840.63
2022-07-30T07:30:44.263Z,97830.41
2022-07-30T07:33:13.319Z,97824.88
2022-07-30T07:35:49.658Z,97827.97
2022-07-30T07:38:18.723Z,97824.41
2022-07-30T07:40:47.272Z,97823.97
2022-07-30T07:43:15.552Z,97828.66
2022-07-30T07:45:46.301Z,97813.63
2022-07-30T07:48:14.226Z,97815.97
2022-07-30T07:50:41.981Z,97806.06
2022-07-30T07:53:10.294Z,97809.56
2022-07-30T07:55:37.997Z,97809.44
2022-07-30T07:58:05.830Z,97807.88
2022-07-30T08:00:34.184Z,97807.78
2022-07-30T08:03:03.378Z,97807.44
2022-07-30T08:05:56.838Z,97800.63
2022-07-30T08:08:19.365Z,97798.25
2022-07-30T08:10:47.635Z,97803.34
2022-07-30T08:13:49.256Z,97802.19
2022-07-30T08:16:03.800Z,97794.31
2022-07-30T08:18:32.880Z,97789.59
2022-07-30T08:21:00.637Z,97795.00
2022-07-30T08:23:28.873Z,97796.91
2022-07-30T08:25:58.203Z,97790.09
2022-07-30T08:28:36.525Z,97786.78
2022-07-30T08:31:05.184Z,97786.19
2022-07-30T08:33:34.424Z,97786.41
2022-07-30T08:36:04.397Z,97789.75
2022-07-30T08:38:39.265Z,97794.81
2022-07-30T08:41:07.556Z,97792.34
2022-07-30T08:43:36.481Z,97788.63
2022-07-30T08:46:09.755Z,97781.03
2022-07-30T08:48:39.336Z,97779.75
2022-07-30T08:51:08.342Z,97777.72
2022-07-30T08:53:36.846Z,97777.16
2022-07-30T08:56:05.537Z,97784.50
2022-07-30T08:58:35.464Z,97755.22
2022-07-30T09:01:03.769Z,97779.34
2022-07-30T09:03:32.603Z,97764.91
2022-07-30T09:06:03.886Z,97766.94
2022-07-30T09:08:32.341Z,97761.69
2022-07-30T09:11:00.350Z,97762.41
2022-07-30T09:13:30.876Z,97764.78
2022-07-30T09:16:00.021Z,97756.31
2022-07-30T09:18:30.110Z,97759.06
2022-07-30T09:21:00.379Z,97760.03
2022-07-30T09:23:30.053Z,97766.31
2022-07-30T09:26:00.525Z,97763.38
2022-07-30T09:28:31.061Z,97757.81
2022-07-30T09:30:58.995Z,97763.69
2022-07-30T09:33:35.710Z,97763.03
2022-07-30T09:36:06.788Z,97772.97
2022-07-30T09:38:45.751Z,97774.59
2022-07-30T09:41:36.227Z,97772.25
2022-07-30T09:44:04.952Z,97772.06
2022-07-30T09:46:44.963Z,97765.97
2022-07-30T09:49:16.917Z,97768.94
2022-07-30T09:51:55.755Z,97768.38
2022-07-30T09:54:26.944Z,97771.44
2022-07-30T09:57:15.959Z,97769.94
2022-07-30T09:59:53.906Z,97769.47
2022-07-30T10:02:32.048Z,97762.00
2022-07-30T10:05:14.136Z,97753.66
2022-07-30T10:07:53.158Z,97759.00
2022-07-30T10:10:25.794Z,97750.56
2022-07-30T10:12:59.085Z,97755.66
2022-07-30T10:15:30.732Z,97746.84
2022-07-30T10:18:01.284Z,97743.75
2022-07-30T10:20:29.949Z,97746.31
2022-07-30T10:23:07.753Z,97744.28
2022-07-30T10:25:48.946Z,97741.03
2022-07-30T10:28:23.253Z,97740.97
2022-07-30T10:30:53.277Z,97743.22
2022-07-30T10:33:36.700Z,97738.56
2022-07-30T10:36:12.064Z,97739.94
2022-07-30T10:38:42.928Z,97741.78
2022-07-30T10:41:22.367Z,97740.81
2022-07-30T10:44:32.450Z,97732.59
2022-07-30T10:47:06.576Z,97742.88
2022-07-30T10:49:41.217Z,97739.78
2022-07-30T10:52:12.307Z,97723.34
2022-07-30T10:54:43.089Z,97731.69
2022-07-30T10:57:23.038Z,97721.09
2022-07-30T11:00:12.005Z,97721.25
2022-07-30T11:02:40.445Z,97720.94
2022-07-30T11:05:32.060Z,97717.81
2022-07-30T11:08:36.149Z,97715.34
2022-07-30T11:11:19.865Z,97712.56
2022-07-30T11:13:54.626Z,97701.81
2022-07-30T11:16:24.372Z,97707.88
2022-07-30T11:19:55.946Z,97716.59
2022-07-30T11:22:28.204Z,97704.78
2022-07-30T11:24:56.563Z,97713.19
2022-07-30T11:27:36.672Z,97711.16
2022-07-30T11:30:28.445Z,97710.38
2022-07-30T11:32:58.428Z,97711.31
2022-07-30T11:35:35.290Z,97703.63
2022-07-30T11:38:07.089Z,97697.34
2022-07-30T11:40:36.841Z,97697.13
2022-07-30T11:43:25.609Z,97688.78
2022-07-30T11:46:10.528Z,97686.94
2022-07-30T11:48:42.857Z,97687.00
2022-07-30T11:51:11.537Z,97680.19
2022-07-30T11:53:39.365Z,97684.50
2022-07-30T11:56:09.422Z,97671.00
2022-07-30T11:58:41.780Z,97671.84
2022-07-30T12:01:14.267Z,97664.19
2022-07-30T12:03:45.132Z,97667.75
2022-07-30T12:06:18.030Z,97664.94
2022-07-30T12:08:48.471Z,97658.09
2022-07-30T12:11:16.616Z,97662.75
2022-07-30T12:13:46.243Z,97664.69
2022-07-30T12:16:17.199Z,97649.13
2022-07-30T12:18:47.355Z,97666.75
2022-07-30T12:21:16.758Z,97674.34
2022-07-30T12:23:54.349Z,97687.31
2022-07-30T12:26:24.617Z,97696.34
2022-07-30T12:28:56.041Z,97692.69
2022-07-30T12:31:24.437Z,97704.38
2022-07-30T12:33:56.243Z,97695.72
2022-07-30T12:36:29.415Z,97705.22
2022-07-30T12:38:58.095Z,97695.06
2022-07-30T12:41:42.538Z,97708.16
2022-07-30T12:44:11.012Z,97715.06
2022-07-30T12:46:41.327Z,97711.75
2022-07-30T12:49:17.495Z,97727.34
2022-07-30T12:52:00.517Z,97725.41
2022-07-30T12:54:29.722Z,97731.00
2022-07-30T12:57:00.344Z,97723.50
2022-07-30T12:59:29.234Z,97724.75
2022-07-30T13:02:00.280Z,97736.22
2022-07-30T13:04:31.850Z,97728.81
2022-07-30T13:07:07.999Z,97734.41
2022-07-30T13:09:36.995Z,97725.72
2022-07-30T13:12:05.545Z,97712.13
2022-07-30T13:14:33.682Z,97709.34
2022-07-30T13:17:04.010Z,97704.91
2022-07-30T13:19:33.675Z,97704.25
2022-07-30T13:22:01.378Z,97697.22
2022-07-30T13:24:29.442Z,97702.66
2022-07-30T13:26:57.437Z,97697.47
2022-07-30T13:29:25.377Z,97694.78
2022-07-30T13:31:53.598Z,97687.75
2022-07-30T13:34:21.567Z,97691.66
2022-07-30T13:36:50.693Z,97681.44
2022-07-30T13:39:18.843Z,97673.97
2022-07-30T13:41:46.662Z,97672.78
2022-07-30T13:44:14.436Z,97670.44
2022-07-30T13:46:42.535Z,97674.34
2022-07-30T13:49:10.710Z,97673.19
2022-07-30T13:51:38.929Z,97664.91
2022-07-30T13:54:08.612Z,97662.88
2022-07-30T13:56:40.732Z,97665.69
2022-07-30T13:59:09.329Z,97667.66
2022-07-30T14:01:38.154Z,97666.47
2022-07-30T14:04:08.367Z,97661.75
2022-07-30T14:06:36.686Z,97642.84
2022-07-30T14:09:04.841Z,97658.16
2022-07-30T14:11:34.365Z,97645.94
2022-07-30T14:14:02.606Z,97645.09
2022-07-30T14:16:46.098Z,97638.75
2022-07-30T14:19:23.061Z,97641.47
2022-07-30T14:21:53.885Z,97630.84
2022-07-30T14:24:22.417Z,97629.16
2022-07-30T14:26:57.398Z,97623.59
2022-07-30T14:29:27.324Z,97627.06
2022-07-30T14:31:55.345Z,97624.25
2022-07-30T14:34:23.161Z,97622.66
2022-07-30T14:36:51.580Z,97631.34
2022-07-30T14:39:19.376Z,97640.78
2022-07-30T14:41:47.149Z,97632.78
2022-07-30T14:44:16.875Z,97624.16
2022-07-30T14:46:51.423Z,97620.22
2022-07-30T14:49:21.151Z,97620.94
2022-07-30T14:51:49.029Z,97614.31
2022-07-30T14:54:16.919Z,97616.28
2022-07-30T14:56:45.110Z,97623.41
2022-07-30T14:59:12.917Z,97618.72
2022-07-30T15:01:43.726Z,97620.25
2022-07-30T15:04:12.468Z,97623.44
2022-07-30T15:06:41.700Z,97627.38
2022-07-30T15:09:10.404Z,97625.75
2022-07-30T15:12:07.708Z,97619.03
2022-07-30T15:14:28.276Z,97632.03
2022-07-30T15:17:03.543Z,97624.25
2022-07-30T15:19:32.238Z,97628.91
2022-07-30T15:22:02.194Z,97627.31
2022-07-30T15:24:31.050Z,97627.28
2022-07-30T15:26:59.080Z,97622.16
2022-07-30T15:29:27.242Z,97623.47
2022-07-30T15:31:55.234Z,97628.94
2022-07-30T15:34:24.327Z,97635.34
2022-07-30T15:36:52.638Z,97629.81
2022-07-30T15:39:20.378Z,97628.56
2022-07-30T15:41:48.160Z,97625.88
2022-07-30T15:44:20.405Z,97625.88
2022-07-30T15:46:48.778Z,97629.09
2022-07-30T15:49:16.568Z,97632.59
2022-07-30T15:51:48.640Z,97634.53
2022-07-30T15:54:22.296Z,97634.53
2022-07-30T15:56:51.752Z,97627.44
2022-07-30T15:59:19.617Z,97631.00
2022-07-30T16:01:48.223Z,97623.13
2022-07-30T16:04:18.396Z,97621.56
2022-07-30T16:06:49.336Z,97625.13
2022-07-30T16:09:17.866Z,97625.09
2022-07-30T16:11:46.793Z,97622.66
2022-07-30T16:14:14.812Z,97617.91
2022-07-30T16:16:43.289Z,97617.91
2022-07-30T16:19:11.388Z,97606.94
2022-07-30T16:21:39.125Z,97616.31
2022-07-30T16:24:08.736Z,97607.25
2022-07-30T16:26:37.231Z,97605.44
2022-07-30T16:29:05.241Z,97600.69
2022-07-30T16:31:33.387Z,97609.44
2022-07-30T16:34:01.500Z,97605.56
2022-07-30T16:36:29.484Z,97609.50
2022-07-30T16:38:57.603Z,97604.03
2022-07-30T16:41:26.709Z,97605.22
2022-07-30T16:43:54.473Z,97596.16
2022-07-30T16:46:23.760Z,97600.84
2022-07-30T16:48:51.652Z,97596.03
2022-07-30T16:51:19.731Z,97591.38
2022-07-30T16:53:48.569Z,97607.22
2022-07-30T16:56:16.476Z,97615.91
2022-07-30T16:58:45.744Z,97615.97
2022-07-30T17:01:13.862Z,97609.72
2022-07-30T17:03:41.949Z,97604.19
2022-07-30T17:06:09.860Z,97608.88
2022-07-30T17:08:37.965Z,97606.56
2022-07-30T17:11:09.482Z,97601.44
2022-07-30T17:13:40.359Z,97596.72
2022-07-30T17:16:09.685Z,97605.13
2022-07-30T17:18:37.458Z,97597.72
2022-07-30T17:21:05.513Z,97603.66
2022-07-30T17:23:35.958Z,97602.16
2022-07-30T17:26:03.800Z,97603.69
2022-07-30T17:28:31.986Z,97600.50
2022-07-30T17:30:59.754Z,97598.16
2022-07-30T17:33:29.094Z,97605.25
2022-07-30T17:35:57.277Z,97580.97
2022-07-30T17:38:28.048Z,97594.25
2022-07-30T17:40:56.021Z,97594.66
2022-07-30T17:43:24.222Z,97595.84
2022-07-30T17:45:52.589Z,97600.91
2022-07-30T17:48:21.722Z,97597.03
2022-07-30T17:50:51.375Z,97589.59
2022-07-30T17:53:19.191Z,97593.16
2022-07-30T17:55:57.401Z,97592.75
2022-07-30T17:58:26.812Z,97587.25
2022-07-30T18:00:55.747Z,97594.31
2022-07-30T18:03:23.620Z,97588.78
2022-07-30T18:05:53.461Z,97593.13
2022-07-30T18:08:21.226Z,97591.19
2022-07-30T18:10:50.075Z,97592.38
2022-07-30T18:13:26.888Z,97584.16
2022-07-30T18:15:55.308Z,97600.56
2022-07-30T18:18:23.428Z,97600.56
2022-07-30T18:20:51.237Z,97593.56
2022-07-30T18:23:20.467Z,97602.22
2022-07-30T18:25:53.323Z,97582.63
2022-07-30T18:28:22.429Z,97600.66
2022-07-30T18:30:50.613Z,97597.50
2022-07-30T18:33:18.978Z,97591.97
2022-07-30T18:35:46.714Z,97592.00
2022-07-30T18:38:15.007Z,97585.72
2022-07-30T18:40:45.014Z,97596.69
2022-07-30T18:43:13.099Z,97594.34
2022-07-30T18:45:40.926Z,97597.47
2022-07-30T18:48:09.424Z,97599.06
2022-07-30T18:50:37.186Z,97595.53
2022-07-30T18:53:15.068Z,97601.44
2022-07-30T18:55:45.889Z,97602.22
2022-07-30T18:58:13.673Z,97597.47
2022-07-30T19:00:43.861Z,97598.25
2022-07-30T19:03:16.439Z,97599.09
2022-07-30T19:05:46.570Z,97595.19
2022-07-30T19:08:14.949Z,97590.47
2022-07-30T19:10:43.690Z,97595.97
2022-07-30T19:13:12.849Z,97594.38
2022-07-30T19:15:41.054Z,97592.03
2022-07-30T19:18:10.213Z,97599.09
2022-07-30T19:20:38.069Z,97591.28
2022-07-30T19:23:07.642Z,97577.09
2022-07-30T19:25:39.145Z,97581.41
2022-07-30T19:28:07.287Z,97583.38
2022-07-30T19:30:36.701Z,97578.28
2022-07-30T19:33:05.714Z,97570.84
2022-07-30T19:35:34.267Z,97566.16
2022-07-30T19:38:02.101Z,97561.78
2022-07-30T19:40:30.518Z,97564.97
2022-07-30T19:43:01.944Z,97570.84
2022-07-30T19:45:47.793Z,97570.91
2022-07-30T19:48:28.904Z,97558.72
2022-07-30T19:50:58.165Z,97565.47
2022-07-30T19:53:27.907Z,97570.19
2022-07-30T19:56:01.531Z,97565.88
2022-07-30T19:58:30.182Z,97567.06
2022-07-30T20:00:59.486Z,97576.16
2022-07-30T20:03:31.947Z,97564.72
2022-07-30T20:06:00.722Z,97572.56
2022-07-30T20:08:28.846Z,97569.41
2022-07-30T20:10:57.750Z,97564.75
2022-07-30T20:13:45.139Z,97574.19
2022-07-30T20:16:15.752Z,97556.91
2022-07-30T20:18:46.288Z,97569.13
2022-07-30T20:21:16.061Z,97571.13
2022-07-30T20:23:45.451Z,97569.16
2022-07-30T20:26:15.838Z,97569.97
2022-07-30T20:28:45.020Z,97571.16
2022-07-30T20:31:15.814Z,97571.97
2022-07-30T20:33:49.495Z,97578.22
2022-07-30T20:36:19.573Z,97577.41
2022-07-30T20:38:47.789Z,97570.38
2022-07-30T20:41:15.878Z,97564.88
2022-07-30T20:43:45.995Z,97565.66
2022-07-30T20:46:23.293Z,97563.31
2022-07-30T20:48:51.963Z,97570.41
2022-07-30T20:51:20.229Z,97573.91
2022-07-30T20:53:49.390Z,97572.75
2022-07-30T20:56:19.469Z,97575.91
2022-07-30T20:58:48.180Z,97575.09
2022-07-30T21:01:17.727Z,97565.69
2022-07-30T21:03:48.757Z,97566.09
2022-07-30T21:06:16.740Z,97568.06
2022-07-30T21:08:44.555Z,97568.06
2022-07-30T21:11:12.933Z,97570.06
2022-07-30T21:13:42.368Z,97571.22
2022-07-30T21:16:15.627Z,97568.06
2022-07-30T21:18:49.913Z,97564.16
2022-07-30T21:21:38.204Z,97571.22
2022-07-30T21:24:11.562Z,97572.00
2022-07-30T21:26:40.814Z,97561.00
2022-07-30T21:29:09.591Z,97560.59
2022-07-30T21:32:01.801Z,97559.81
2022-07-30T21:34:28.098Z,97554.69
2022-07-30T21:36:58.923Z,97555.50
2022-07-30T21:39:28.779Z,97559.41
2022-07-30T21:41:57.291Z,97553.94
2022-07-30T21:44:25.358Z,97549.59
2022-07-30T21:46:55.444Z,97554.69
2022-07-30T21:49:23.895Z,97553.91
2022-07-30T21:51:51.658Z,97555.50
2022-07-30T21:54:28.741Z,97555.88
2022-07-30T21:56:58.252Z,97555.50
2022-07-30T21:59:27.837Z,97563.34
2022-07-30T22:01:55.909Z,97555.09
2022-07-30T22:04:24.180Z,97557.44
2022-07-30T22:06:55.258Z,97557.81
2022-07-30T22:09:33.977Z,97557.44
2022-07-30T22:12:06.427Z,97555.47
2022-07-30T22:14:39.096Z,97550.75
2022-07-30T22:17:22.416Z,97541.34
2022-07-30T22:19:51.469Z,97548.00
2022-07-30T22:22:27.450Z,97534.25
2022-07-30T22:24:59.924Z,97539.78
2022-07-30T22:27:55.913Z,97537.41
2022-07-30T22:30:26.639Z,97542.13
2022-07-30T22:32:54.870Z,97532.72
2022-07-30T22:35:32.497Z,97532.31
2022-07-30T22:38:03.253Z,97521.31
2022-07-30T22:40:33.104Z,97528.00
2022-07-30T22:43:07.571Z,97529.16
2022-07-30T22:45:47.383Z,97527.59
2022-07-30T22:48:20.142Z,97516.59
2022-07-30T22:50:55.514Z,97511.50
2022-07-30T22:54:10.682Z,97516.59
2022-07-30T22:56:15.551Z,97512.28
2022-07-30T22:58:43.581Z,97510.69
2022-07-30T23:01:11.301Z,97513.03
2022-07-30T23:03:39.396Z,97517.78
2022-07-30T23:06:14.468Z,97507.19
2022-07-30T23:08:42.722Z,97502.06
2022-07-30T23:11:10.465Z,97499.72
2022-07-30T23:13:39.672Z,97504.81
2022-07-30T23:16:07.750Z,97497.75
2022-07-30T23:18:35.828Z,97495.81
2022-07-30T23:21:04.739Z,97490.31
2022-07-30T23:23:34.057Z,97495.81
2022-07-30T23:26:02.992Z,97493.06
2022-07-30T23:28:31.144Z,97487.97
2022-07-30T23:31:01.025Z,97479.31
2022-07-30T23:33:28.835Z,97483.22
2022-07-30T23:35:56.818Z,97477.72
2022-07-30T23:38:25.224Z,97485.19
2022-07-30T23:40:53.168Z,97480.88
2022-07-30T23:43:21.125Z,97476.16
2022-07-30T23:45:49.516Z,97471.47
2022-07-30T23:48:18.814Z,97468.31
2022-07-30T23:50:46.567Z,97470.66
2022-07-30T23:53:14.684Z,97459.69
2022-07-30T23:55:42.459Z,97473.78
2022-07-30T23:58:10.293Z,97467.53
